createdAt,value
2019-01-15T00:01:34.435Z,0.00
2019-01-15T00:04:03.898Z,0.00
2019-01-15T00:06:33.266Z,0.00
2019-01-15T00:09:03.608Z,0.00
2019-01-15T00:11:32.914Z,0.00
2019-01-15T00:14:03.463Z,0.00
2019-01-15T00:16:32.866Z,0.00
2019-01-15T00:19:02.486Z,0.10
2019-01-15T00:21:31.800Z,0.10
2019-01-15T00:24:01.190Z,0.10
2019-01-15T00:26:30.558Z,0.00
2019-01-15T00:28:59.858Z,0.10
2019-01-15T00:31:29.444Z,0.10
2019-01-15T00:33:58.840Z,0.10
2019-01-15T00:36:28.186Z,0.20
2019-01-15T00:38:57.603Z,0.10
2019-01-15T00:41:26.991Z,0.20
2019-01-15T00:43:56.292Z,0.10
2019-01-15T00:46:25.601Z,0.20
2019-01-15T00:48:54.938Z,0.20
2019-01-15T00:51:24.258Z,0.20
2019-01-15T00:53:53.596Z,0.20
2019-01-15T00:56:22.918Z,0.10
2019-01-15T00:58:52.278Z,0.10
2019-01-15T01:01:21.621Z,0.10
2019-01-15T01:03:51.286Z,0.10
2019-01-15T01:06:20.598Z,0.20
2019-01-15T01:08:49.932Z,0.20
2019-01-15T01:11:19.228Z,0.10
2019-01-15T01:13:48.628Z,0.20
2019-01-15T01:16:18.014Z,0.20
2019-01-15T01:18:47.380Z,0.20
2019-01-15T01:21:16.756Z,0.20
2019-01-15T01:23:46.071Z,0.30
2019-01-15T01:26:15.500Z,0.30
2019-01-15T01:28:44.814Z,0.30
2019-01-15T01:31:14.253Z,0.30
2019-01-15T01:33:43.635Z,0.30
2019-01-15T01:36:12.988Z,0.30
2019-01-15T01:38:42.364Z,0.30
2019-01-15T01:41:11.727Z,0.40
2019-01-15T01:43:41.038Z,0.40
2019-01-15T01:46:10.392Z,0.40
2019-01-15T01:48:39.788Z,0.50
2019-01-15T01:51:09.178Z,0.40
2019-01-15T01:53:38.548Z,0.50
2019-01-15T01:56:07.858Z,0.50
2019-01-15T01:58:37.302Z,0.60
2019-01-15T02:01:06.657Z,0.60
2019-01-15T02:03:36.598Z,0.60
2019-01-15T02:06:05.935Z,0.70
2019-01-15T02:08:35.322Z,0.70
2019-01-15T02:11:04.678Z,0.80
2019-01-15T02:13:34.138Z,1.00
2019-01-15T02:16:03.478Z,1.00
2019-01-15T02:18:32.838Z,0.90
2019-01-15T02:21:02.226Z,1.10
2019-01-15T02:23:31.590Z,1.10
2019-01-15T02:26:00.912Z,1.10
2019-01-15T02:28:30.265Z,1.10
2019-01-15T02:30:59.632Z,1.10
2019-01-15T02:33:29.014Z,1.10
2019-01-15T02:35:58.364Z,1.10
2019-01-15T02:38:27.750Z,1.10
2019-01-15T02:40:57.108Z,1.20
2019-01-15T02:43:26.430Z,1.20
2019-01-15T02:45:55.783Z,1.10
2019-01-15T02:48:25.186Z,1.10
2019-01-15T02:50:54.533Z,1.10
2019-01-15T02:53:23.849Z,1.10
2019-01-15T02:55:53.295Z,1.10
2019-01-15T02:58:22.686Z,1.10
2019-01-15T03:00:52.022Z,1.10
2019-01-15T03:03:21.330Z,1.20
2019-01-15T03:05:50.671Z,1.10
2019-01-15T03:08:20.072Z,1.10
2019-01-15T03:10:49.424Z,1.00
2019-01-15T03:13:18.774Z,1.00
2019-01-15T03:15:48.210Z,1.00
2019-01-15T03:18:17.592Z,1.00
2019-01-15T03:20:47.015Z,1.10
2019-01-15T03:23:16.414Z,1.10
2019-01-15T03:25:45.757Z,1.10
2019-01-15T03:28:15.153Z,1.10
2019-01-15T03:30:44.529Z,1.10
2019-01-15T03:33:13.932Z,1.10
2019-01-15T03:35:43.315Z,1.20
2019-01-15T03:38:12.748Z,1.20
2019-01-15T03:40:42.078Z,1.20
2019-01-15T03:43:11.422Z,1.20
2019-01-15T03:45:40.730Z,1.20
2019-01-15T03:48:10.090Z,1.30
2019-01-15T03:50:39.390Z,1.20
2019-01-15T03:53:08.784Z,1.20
2019-01-15T03:55:38.171Z,1.20
2019-01-15T03:58:07.590Z,1.30
2019-01-15T04:00:36.950Z,1.30
2019-01-15T04:03:06.399Z,1.40
2019-01-15T04:05:35.814Z,1.40
2019-01-15T04:08:05.232Z,1.40
2019-01-15T04:10:34.684Z,1.40
2019-01-15T04:13:11.158Z,1.40
2019-01-15T04:15:36.509Z,1.40
2019-01-15T04:18:05.867Z,1.50
2019-01-15T04:20:35.239Z,1.50
2019-01-15T04:23:04.634Z,1.50
2019-01-15T04:25:33.986Z,1.50
2019-01-15T04:28:03.371Z,1.50
2019-01-15T04:30:32.696Z,1.60
2019-01-15T04:33:02.242Z,1.70
2019-01-15T04:35:31.558Z,1.60
2019-01-15T04:38:02.308Z,1.70
2019-01-15T04:40:31.702Z,1.70
2019-01-15T04:43:02.271Z,1.70
2019-01-15T04:45:31.663Z,1.70
2019-01-15T04:48:02.500Z,1.70
2019-01-15T04:50:31.891Z,1.70
2019-01-15T04:53:04.154Z,1.80
2019-01-15T04:55:33.556Z,1.80
2019-01-15T04:58:03.299Z,1.80
2019-01-15T05:00:32.602Z,1.80
2019-01-15T05:03:04.393Z,1.80
2019-01-15T05:05:33.735Z,1.70
2019-01-15T05:08:03.228Z,1.70
2019-01-15T05:10:32.670Z,1.60
2019-01-15T05:13:02.035Z,1.60
2019-01-15T05:15:31.500Z,1.60
2019-01-15T05:18:00.843Z,1.70
2019-01-15T05:20:30.265Z,1.70
2019-01-15T05:22:59.611Z,1.70
2019-01-15T05:25:29.038Z,1.70
2019-01-15T05:27:58.436Z,1.70
2019-01-15T05:30:29.605Z,1.80
2019-01-15T05:32:58.910Z,1.70
2019-01-15T05:35:28.221Z,1.80
2019-01-15T05:37:57.655Z,1.80
2019-01-15T05:40:26.981Z,1.80
2019-01-15T05:42:56.950Z,1.90
2019-01-15T05:45:32.259Z,1.80
2019-01-15T05:48:06.507Z,1.80
2019-01-15T05:50:43.842Z,1.90
2019-01-15T05:53:13.370Z,1.90
2019-01-15T05:55:42.771Z,1.90
2019-01-15T05:58:12.157Z,1.90
2019-01-15T06:00:41.552Z,1.90
2019-01-15T06:03:10.905Z,2.00
2019-01-15T06:05:40.504Z,2.00
2019-01-15T06:08:10.071Z,2.00
2019-01-15T06:10:39.666Z,2.00
2019-01-15T06:13:09.210Z,2.00
2019-01-15T06:15:38.736Z,2.00
2019-01-15T06:18:08.227Z,2.10
2019-01-15T06:20:37.813Z,2.10
2019-01-15T06:23:07.323Z,2.00
2019-01-15T06:25:36.955Z,2.00
2019-01-15T06:28:06.565Z,2.10
2019-01-15T06:30:39.091Z,2.00
2019-01-15T06:33:08.557Z,2.10
2019-01-15T06:35:38.041Z,2.10
2019-01-15T06:38:07.718Z,2.00
2019-01-15T06:40:37.730Z,2.10
2019-01-15T06:43:07.283Z,2.10
2019-01-15T06:45:36.903Z,2.20
2019-01-15T06:48:07.009Z,2.10
2019-01-15T06:50:36.513Z,2.10
2019-01-15T06:53:06.454Z,2.10
2019-01-15T06:55:35.911Z,2.10
2019-01-15T06:58:05.856Z,2.10
2019-01-15T07:00:36.487Z,2.10
2019-01-15T07:03:06.640Z,2.10
2019-01-15T07:05:36.124Z,2.20
2019-01-15T07:08:05.979Z,2.20
2019-01-15T07:10:37.965Z,2.20
2019-01-15T07:13:07.495Z,2.20
2019-01-15T07:15:37.110Z,2.20
2019-01-15T07:18:06.607Z,2.20
2019-01-15T07:20:36.097Z,2.20
2019-01-15T07:23:05.649Z,2.30
2019-01-15T07:25:35.161Z,2.30
2019-01-15T07:28:05.250Z,2.30
2019-01-15T07:30:37.746Z,2.40
2019-01-15T07:33:08.308Z,2.40
2019-01-15T07:35:37.851Z,2.40
2019-01-15T07:38:07.400Z,2.40
2019-01-15T07:40:36.776Z,2.40
2019-01-15T07:43:06.159Z,2.30
2019-01-15T07:45:35.750Z,2.30
2019-01-15T07:48:05.362Z,2.40
2019-01-15T07:50:35.067Z,2.30
2019-01-15T07:53:05.053Z,2.30
2019-01-15T07:55:34.722Z,2.30
2019-01-15T07:58:04.401Z,2.30
2019-01-15T08:00:33.943Z,2.30
2019-01-15T08:03:03.547Z,2.30
2019-01-15T08:05:33.034Z,2.20
2019-01-15T08:08:02.901Z,2.30
2019-01-15T08:10:32.583Z,2.40
2019-01-15T08:13:02.103Z,2.40
2019-01-15T08:15:31.812Z,2.30
2019-01-15T08:18:01.667Z,2.40
2019-01-15T08:20:31.240Z,2.40
2019-01-15T08:23:00.774Z,2.50
2019-01-15T08:25:30.383Z,2.50
2019-01-15T08:27:59.913Z,2.50
2019-01-15T08:30:32.205Z,2.50
2019-01-15T08:33:01.787Z,2.60
2019-01-15T08:35:31.427Z,2.70
2019-01-15T08:38:01.014Z,2.70
2019-01-15T08:40:30.574Z,2.80
2019-01-15T08:43:00.067Z,2.80
2019-01-15T08:45:29.743Z,2.80
2019-01-15T08:48:11.479Z,2.90
2019-01-15T08:50:44.255Z,2.90
2019-01-15T08:53:18.712Z,3.00
2019-01-15T08:55:50.106Z,3.00
2019-01-15T08:58:19.675Z,3.00
2019-01-15T09:00:49.556Z,3.10
2019-01-15T09:03:19.128Z,3.10
2019-01-15T09:05:48.890Z,3.10
2019-01-15T09:08:20.443Z,3.10
2019-01-15T09:10:50.055Z,3.20
2019-01-15T09:13:19.768Z,3.30
2019-01-15T09:15:49.429Z,3.30
2019-01-15T09:18:19.008Z,3.30
2019-01-15T09:20:48.605Z,3.30
2019-01-15T09:23:21.311Z,3.40
2019-01-15T09:25:53.921Z,3.40
2019-01-15T09:28:23.606Z,3.50
2019-01-15T09:30:53.231Z,3.50
2019-01-15T09:33:24.099Z,3.50
2019-01-15T09:35:53.729Z,3.50
2019-01-15T09:38:25.139Z,3.50
2019-01-15T09:40:54.722Z,3.60
2019-01-15T09:43:24.268Z,3.70
2019-01-15T09:45:53.841Z,3.70
2019-01-15T09:48:27.266Z,3.70
2019-01-15T09:50:57.028Z,3.70
2019-01-15T09:53:26.528Z,3.80
2019-01-15T09:55:56.110Z,3.70
2019-01-15T09:58:25.567Z,3.80
2019-01-15T10:00:55.147Z,3.80
2019-01-15T10:03:24.649Z,3.90
2019-01-15T10:05:55.758Z,3.80
2019-01-15T10:08:25.633Z,3.80
2019-01-15T10:10:55.152Z,3.80
2019-01-15T10:13:24.727Z,3.90
2019-01-15T10:15:54.270Z,3.80
2019-01-15T10:18:23.787Z,3.80
2019-01-15T10:20:53.388Z,3.80
2019-01-15T10:23:23.041Z,3.80
2019-01-15T10:25:52.788Z,3.80
2019-01-15T10:28:22.319Z,3.90
2019-01-15T10:31:32.659Z,3.90
2019-01-15T10:34:10.003Z,4.00
2019-01-15T10:36:37.874Z,3.90
2019-01-15T10:39:11.917Z,3.90
2019-01-15T10:41:41.517Z,3.90
2019-01-15T10:44:11.065Z,4.00
2019-01-15T10:46:40.714Z,3.90
2019-01-15T10:49:10.261Z,4.00
2019-01-15T10:51:39.899Z,4.00
2019-01-15T10:54:09.436Z,4.00
2019-01-15T10:56:39.213Z,4.00
2019-01-15T10:59:08.814Z,4.00
2019-01-15T11:01:38.387Z,3.90
2019-01-15T11:04:07.937Z,4.00
2019-01-15T11:06:37.454Z,4.00
2019-01-15T11:09:09.612Z,4.00
2019-01-15T11:11:39.171Z,4.00
2019-01-15T11:14:10.979Z,4.00
2019-01-15T11:16:40.507Z,4.00
2019-01-15T11:19:10.369Z,4.00
2019-01-15T11:21:39.909Z,4.00
2019-01-15T11:24:09.456Z,4.00
2019-01-15T11:26:39.000Z,4.10
2019-01-15T11:29:08.779Z,4.00
2019-01-15T11:31:39.821Z,4.00
2019-01-15T11:34:09.482Z,4.00
2019-01-15T11:36:38.993Z,4.00
2019-01-15T11:39:10.434Z,4.00
2019-01-15T11:41:39.987Z,4.10
2019-01-15T11:44:09.459Z,4.10
2019-01-15T11:46:38.965Z,4.10
2019-01-15T11:49:08.498Z,4.00
2019-01-15T11:51:37.982Z,4.10
2019-01-15T11:54:07.617Z,4.10
2019-01-15T11:56:37.297Z,4.00
2019-01-15T11:59:07.762Z,4.00
2019-01-15T12:01:43.816Z,4.10
2019-01-15T12:04:46.006Z,4.10
2019-01-15T12:07:52.789Z,4.10
2019-01-15T12:10:39.992Z,4.10
2019-01-15T12:13:31.255Z,4.10
2019-01-15T12:16:20.297Z,4.10
2019-01-15T12:19:08.758Z,4.10
2019-01-15T12:21:59.961Z,4.10
2019-01-15T12:24:37.561Z,4.00
2019-01-15T12:27:24.163Z,4.10
2019-01-15T12:30:08.648Z,4.10
2019-01-15T12:32:57.118Z,4.10
2019-01-15T12:35:39.501Z,4.10
2019-01-15T12:38:44.014Z,4.20
2019-01-15T12:41:25.865Z,4.20
2019-01-15T12:44:07.186Z,4.20
2019-01-15T12:46:58.419Z,4.20
2019-01-15T12:49:46.887Z,4.20
2019-01-15T12:52:38.600Z,4.20
2019-01-15T12:55:30.842Z,4.30
2019-01-15T12:58:12.946Z,4.30
2019-01-15T13:01:00.223Z,4.30
2019-01-15T13:04:07.030Z,4.30
2019-01-15T13:06:53.867Z,4.30
2019-01-15T13:09:57.247Z,4.40
2019-01-15T13:12:43.333Z,4.40
2019-01-15T13:15:34.692Z,4.40
2019-01-15T13:18:24.740Z,4.40
2019-01-15T13:21:13.239Z,4.40
2019-01-15T13:24:10.892Z,4.40
2019-01-15T13:27:03.479Z,4.40
2019-01-15T13:30:00.913Z,4.50
2019-01-15T13:32:52.314Z,4.50
2019-01-15T13:35:35.747Z,4.50
2019-01-15T13:38:22.857Z,4.50
2019-01-15T13:41:14.038Z,4.50
2019-01-15T13:43:55.924Z,4.50
2019-01-15T13:46:53.425Z,4.60
2019-01-15T13:49:56.948Z,4.60
2019-01-15T13:52:57.575Z,4.60
2019-01-15T13:55:45.091Z,4.70
2019-01-15T13:58:28.314Z,4.70
2019-01-15T14:01:26.187Z,4.80
2019-01-15T14:04:14.625Z,4.80
2019-01-15T14:07:09.247Z,4.80
2019-01-15T14:10:13.095Z,4.80
2019-01-15T14:12:59.977Z,4.90
2019-01-15T14:15:48.764Z,4.80
2019-01-15T14:18:30.354Z,4.80
2019-01-15T14:21:18.843Z,4.80
2019-01-15T14:24:08.655Z,4.80
2019-01-15T14:26:51.071Z,4.80
2019-01-15T14:29:48.417Z,4.80
2019-01-15T14:33:04.111Z,4.80
2019-01-15T14:35:56.999Z,4.90
2019-01-15T14:39:06.433Z,4.80
2019-01-15T14:42:23.738Z,4.80
2019-01-15T14:45:04.680Z,4.90
2019-01-15T14:47:52.514Z,4.90
2019-01-15T14:50:36.291Z,4.80
2019-01-15T14:53:32.342Z,4.90
2019-01-15T14:56:14.370Z,4.90
2019-01-15T14:59:21.655Z,4.90
2019-01-15T15:02:22.747Z,4.80
2019-01-15T15:04:59.360Z,4.90
2019-01-15T15:07:49.247Z,4.90
2019-01-15T15:10:36.447Z,5.00
2019-01-15T15:13:37.262Z,4.90
2019-01-15T15:16:34.999Z,5.00
2019-01-15T15:19:23.659Z,5.00
2019-01-15T15:22:12.461Z,5.00
2019-01-15T15:25:08.570Z,5.00
2019-01-15T15:28:08.995Z,5.00
2019-01-15T15:30:59.575Z,4.90
2019-01-15T15:33:46.521Z,4.90
2019-01-15T15:36:38.341Z,4.90
2019-01-15T15:39:37.680Z,4.90
2019-01-15T15:42:31.167Z,4.90
2019-01-15T15:45:17.227Z,4.80
2019-01-15T15:48:12.133Z,4.90
2019-01-15T15:51:20.397Z,4.90
2019-01-15T15:54:07.245Z,4.80
2019-01-15T15:56:59.382Z,4.90
2019-01-15T16:00:04.678Z,4.90
2019-01-15T16:03:05.525Z,4.90
2019-01-15T16:06:19.873Z,5.00
2019-01-15T16:09:11.394Z,4.90
2019-01-15T16:12:02.293Z,4.90
2019-01-15T16:14:50.797Z,4.90
2019-01-15T16:17:55.953Z,4.90
2019-01-15T16:20:48.408Z,4.90
2019-01-15T16:23:41.827Z,4.90
2019-01-15T16:26:30.562Z,5.00
2019-01-15T16:29:19.147Z,5.00
2019-01-15T16:32:10.670Z,5.00
2019-01-15T16:35:01.518Z,5.00
2019-01-15T16:38:23.689Z,5.00
2019-01-15T16:41:12.150Z,5.00
2019-01-15T16:43:58.217Z,5.00
2019-01-15T16:46:48.690Z,4.90
2019-01-15T16:49:36.104Z,5.00
2019-01-15T16:52:51.000Z,5.00
2019-01-15T16:55:43.845Z,5.00
2019-01-15T16:58:29.984Z,5.00
2019-01-15T17:01:19.854Z,5.00
2019-01-15T17:04:23.838Z,5.10
2019-01-15T17:07:27.762Z,5.10
2019-01-15T17:10:28.986Z,5.10
2019-01-15T17:13:16.632Z,5.10
2019-01-15T17:16:07.826Z,5.00
2019-01-15T17:18:58.997Z,5.10
2019-01-15T17:21:56.396Z,5.00
2019-01-15T17:24:48.885Z,5.00
2019-01-15T17:27:40.914Z,5.00
2019-01-15T17:30:52.327Z,5.00
2019-01-15T17:33:59.418Z,5.00
2019-01-15T17:36:50.762Z,5.10
2019-01-15T17:39:42.028Z,5.00
2019-01-15T17:42:42.780Z,5.10
2019-01-15T17:45:43.945Z,5.00
2019-01-15T17:48:25.118Z,5.00
2019-01-15T17:51:23.036Z,5.10
2019-01-15T17:54:02.129Z,5.10
2019-01-15T17:56:53.788Z,5.20
2019-01-15T17:59:42.374Z,5.20
2019-01-15T18:02:34.740Z,5.20
2019-01-15T18:05:24.461Z,5.20
2019-01-15T18:08:31.658Z,5.20
2019-01-15T18:11:38.782Z,5.20
2019-01-15T18:14:28.984Z,5.20
2019-01-15T18:17:13.033Z,5.20
2019-01-15T18:20:20.481Z,5.20
2019-01-15T18:23:01.005Z,5.20
2019-01-15T18:26:01.926Z,5.30
2019-01-15T18:28:49.209Z,5.30
2019-01-15T18:31:40.631Z,5.20
2019-01-15T18:34:40.555Z,5.30
2019-01-15T18:37:36.553Z,5.30
2019-01-15T18:40:40.451Z,5.30
2019-01-15T18:43:33.436Z,5.30
2019-01-15T18:46:28.468Z,5.40
2019-01-15T18:49:23.140Z,5.40
2019-01-15T18:52:12.376Z,5.50
2019-01-15T18:55:10.592Z,5.50
2019-01-15T18:58:12.707Z,5.50
2019-01-15T19:01:16.612Z,5.50
2019-01-15T19:04:21.754Z,5.50
2019-01-15T19:07:33.445Z,5.40
2019-01-15T19:10:29.189Z,5.30
2019-01-15T19:13:24.589Z,5.30
2019-01-15T19:16:16.172Z,5.20
2019-01-15T19:19:08.057Z,5.20
2019-01-15T19:22:08.674Z,5.20
2019-01-15T19:25:02.527Z,5.20
2019-01-15T19:27:56.334Z,5.10
2019-01-15T19:31:05.034Z,5.20
2019-01-15T19:34:03.034Z,5.20
2019-01-15T19:36:53.722Z,5.20
2019-01-15T19:40:00.706Z,5.20
2019-01-15T19:42:50.130Z,5.20
2019-01-15T19:45:38.005Z,5.20
2019-01-15T19:48:32.833Z,5.20
2019-01-15T19:51:25.789Z,5.20
2019-01-15T19:54:34.484Z,5.30
2019-01-15T19:57:23.248Z,5.30
2019-01-15T20:00:26.864Z,5.30
2019-01-15T20:03:29.867Z,5.30
2019-01-15T20:06:36.441Z,5.30
2019-01-15T20:09:26.399Z,5.30
2019-01-15T20:12:21.034Z,5.40
2019-01-15T20:15:09.380Z,5.40
2019-01-15T20:17:57.467Z,5.30
2019-01-15T20:20:45.401Z,5.40
2019-01-15T20:23:32.811Z,5.40
2019-01-15T20:26:27.519Z,5.40
2019-01-15T20:29:23.127Z,5.40
2019-01-15T20:32:14.229Z,5.30
2019-01-15T20:35:04.036Z,5.30
2019-01-15T20:38:00.727Z,5.30
2019-01-15T20:40:44.398Z,5.40
2019-01-15T20:43:42.657Z,5.40
2019-01-15T20:46:40.990Z,5.40
2019-01-15T20:49:42.738Z,5.50
2019-01-15T20:52:44.537Z,5.50
2019-01-15T20:55:29.957Z,5.50
2019-01-15T20:58:23.227Z,5.60
2019-01-15T21:01:14.978Z,5.50
2019-01-15T21:04:12.579Z,5.60
2019-01-15T21:07:01.912Z,5.60
2019-01-15T21:09:52.938Z,5.60
2019-01-15T21:12:40.641Z,5.60
2019-01-15T21:15:34.261Z,5.60
2019-01-15T21:18:25.889Z,5.60
2019-01-15T21:21:33.285Z,5.60
2019-01-15T21:24:30.794Z,5.60
2019-01-15T21:27:34.397Z,5.60
2019-01-15T21:30:41.246Z,5.60
2019-01-15T21:33:30.763Z,5.60
2019-01-15T21:36:11.696Z,5.70
2019-01-15T21:39:05.939Z,5.70
2019-01-15T21:42:05.011Z,5.70
2019-01-15T21:45:01.537Z,5.70
2019-01-15T21:47:50.185Z,5.70
2019-01-15T21:50:42.546Z,5.70
2019-01-15T21:53:39.355Z,5.80
2019-01-15T21:56:23.942Z,5.80
2019-01-15T21:59:11.495Z,5.80
2019-01-15T22:02:12.053Z,5.80
2019-01-15T22:05:02.047Z,5.80
2019-01-15T22:07:47.636Z,5.90
2019-01-15T22:10:34.119Z,5.90
2019-01-15T22:13:21.751Z,5.80
2019-01-15T22:16:16.325Z,5.80
2019-01-15T22:19:17.362Z,5.90
2019-01-15T22:22:10.045Z,5.80
2019-01-15T22:25:01.577Z,5.80
2019-01-15T22:27:56.604Z,5.90
2019-01-15T22:30:44.921Z,5.90
2019-01-15T22:33:43.633Z,5.90
2019-01-15T22:36:32.514Z,6.00
2019-01-15T22:39:25.152Z,5.90
2019-01-15T22:42:18.905Z,5.90
2019-01-15T22:45:16.284Z,5.80
2019-01-15T22:48:07.051Z,5.80
2019-01-15T22:51:00.416Z,5.70
2019-01-15T22:53:52.963Z,5.70
2019-01-15T22:56:29.511Z,5.60
2019-01-15T22:59:18.568Z,5.60
2019-01-15T23:01:59.980Z,5.50
2019-01-15T23:04:47.238Z,5.50
2019-01-15T23:07:35.826Z,5.50
2019-01-15T23:10:26.907Z,5.50
2019-01-15T23:13:09.795Z,5.50
2019-01-15T23:15:47.964Z,5.50
2019-01-15T23:18:45.864Z,5.50
2019-01-15T23:21:31.783Z,5.50
2019-01-15T23:24:17.320Z,5.60
2019-01-15T23:27:20.128Z,5.60
2019-01-15T23:30:17.570Z,5.60
2019-01-15T23:33:24.353Z,5.70
2019-01-15T23:36:14.938Z,5.60
2019-01-15T23:39:06.682Z,5.60
2019-01-15T23:42:04.260Z,5.70
2019-01-15T23:45:04.950Z,5.80
2019-01-15T23:48:09.627Z,5.80
2019-01-15T23:51:06.307Z,5.70
2019-01-15T23:54:10.910Z,5.80
2019-01-15T23:57:05.040Z,5.80
2019-01-15T23:59:59.559Z,5.80
